Time;durP1;ratioP1;P1;durP2;ratioP2;P2;SDS_P1;SDS_P2;PMS_P1;PMS_P2;Temp;Humidity;BMP_temperature;BMP_pressure;BME280_temperature;BME280_humidity;BME280_pressure;Samples;Min_cycle;Max_cycle;Signal;HPM_P1;HPM_P2
2022/03/20 00:00:09;;;;;;;2.05;1.40;;;21.10;37.10;;;;;;4972811;28;20047;-62
2022/03/20 00:02:35;;;;;;;1.20;1.10;;;21.20;37.20;;;;;;4974144;28;20404;-62
2022/03/20 00:05:03;;;;;;;1.35;1.10;;;21.10;37.20;;;;;;4979180;28;20053;-63
2022/03/20 00:07:31;;;;;;;2.72;1.35;;;21.10;37.20;;;;;;4978590;28;20125;-63
2022/03/20 00:09:57;;;;;;;1.90;1.27;;;21.10;37.20;;;;;;4977655;28;21032;-62
2022/03/20 00:12:23;;;;;;;1.30;1.20;;;21.10;37.20;;;;;;4974070;28;20147;-63
2022/03/20 00:14:49;;;;;;;2.05;1.80;;;21.10;37.20;;;;;;4978477;28;20511;-62
2022/03/20 00:17:14;;;;;;;1.75;1.40;;;21.10;37.20;;;;;;4980614;28;20074;-63
2022/03/20 00:19:40;;;;;;;1.95;1.17;;;21.10;37.10;;;;;;4979254;28;20047;-62
2022/03/20 00:22:07;;;;;;;1.27;1.00;;;21.00;37.10;;;;;;4976532;28;20162;-63
2022/03/20 00:24:33;;;;;;;1.27;1.13;;;21.00;37.20;;;;;;4977460;28;20047;-62
2022/03/20 00:27:00;;;;;;;1.75;1.20;;;21.00;37.20;;;;;;4978733;28;20516;-63
2022/03/20 00:29:27;;;;;;;1.70;1.30;;;21.00;37.10;;;;;;4972350;28;20080;-62
2022/03/20 00:31:53;;;;;;;1.48;1.30;;;21.00;37.20;;;;;;4980222;28;20043;-62
2022/03/20 00:34:19;;;;;;;1.50;1.38;;;21.00;37.20;;;;;;4974697;28;20046;-63
2022/03/20 00:36:44;;;;;;;2.20;1.25;;;21.00;37.20;;;;;;4977183;28;20607;-63
2022/03/20 00:39:10;;;;;;;1.77;1.20;;;21.00;37.20;;;;;;4975768;28;20047;-62
2022/03/20 00:41:36;;;;;;;1.73;1.38;;;21.00;37.20;;;;;;4976883;28;20105;-62
2022/03/20 00:44:01;;;;;;;1.65;1.38;;;20.90;37.20;;;;;;4972015;28;20072;-61
2022/03/20 00:46:27;;;;;;;2.25;1.30;;;20.90;37.20;;;;;;4977838;28;21907;-62
2022/03/20 00:48:54;;;;;;;1.58;1.15;;;20.90;37.20;;;;;;4961378;28;20043;-61
2022/03/20 00:51:19;;;;;;;1.90;1.40;;;20.90;37.20;;;;;;4973964;28;20860;-61
2022/03/20 00:53:45;;;;;;;1.38;1.20;;;20.90;37.10;;;;;;4977160;28;20067;-61
2022/03/20 00:56:12;;;;;;;1.60;1.40;;;20.90;37.20;;;;;;4974728;28;20061;-61
2022/03/20 00:58:38;;;;;;;1.67;1.30;;;20.90;37.10;;;;;;4969274;28;20050;-61
2022/03/20 01:01:04;;;;;;;1.77;1.35;;;20.80;37.10;;;;;;4979206;28;20478;-61
2022/03/20 01:03:30;;;;;;;1.63;1.52;;;20.90;37.20;;;;;;4973911;28;20554;-61
2022/03/20 01:05:56;;;;;;;2.70;1.45;;;20.90;37.20;;;;;;4976884;28;20124;-61
2022/03/20 01:08:21;;;;;;;2.75;1.52;;;20.80;37.10;;;;;;4961090;28;20063;-62
2022/03/20 01:10:47;;;;;;;1.73;1.30;;;20.80;37.10;;;;;;4974119;28;20049;-61
2022/03/20 01:13:12;;;;;;;1.52;1.35;;;20.80;37.10;;;;;;4969218;28;20467;-61
2022/03/20 01:15:38;;;;;;;1.80;1.17;;;20.80;37.10;;;;;;4976489;28;20470;-61
2022/03/20 01:18:04;;;;;;;1.70;1.17;;;20.80;37.10;;;;;;4974237;28;20042;-60
2022/03/20 01:20:29;;;;;;;1.65;1.20;;;20.80;37.10;;;;;;4973956;28;20051;-60
2022/03/20 01:22:55;;;;;;;1.83;1.40;;;20.80;37.20;;;;;;4975623;28;20132;-60
2022/03/20 01:25:21;;;;;;;1.48;1.38;;;20.70;37.10;;;;;;4990294;28;20050;-60
2022/03/20 01:27:46;;;;;;;1.73;1.23;;;20.80;37.20;;;;;;4971671;28;20073;-60
2022/03/20 01:30:12;;;;;;;2.83;1.40;;;20.70;37.20;;;;;;4976669;28;20057;-60
2022/03/20 01:32:37;;;;;;;1.98;1.55;;;20.70;37.20;;;;;;4975792;28;20077;-60
2022/03/20 01:35:04;;;;;;;1.50;1.40;;;20.70;37.20;;;;;;4976340;28;20153;-59
2022/03/20 01:37:29;;;;;;;2.60;1.42;;;20.70;37.20;;;;;;4976965;28;20054;-60
2022/03/20 01:39:55;;;;;;;1.23;1.10;;;20.70;38.00;;;;;;4976506;28;20155;-59
2022/03/20 01:42:21;;;;;;;2.08;1.75;;;20.70;37.20;;;;;;4973931;28;20076;-61
2022/03/20 01:44:48;;;;;;;2.42;1.58;;;20.70;37.20;;;;;;4969468;28;20192;-60
2022/03/20 01:47:14;;;;;;;2.13;1.35;;;20.60;37.90;;;;;;4974917;28;20109;-60
2022/03/20 01:49:39;;;;;;;1.85;1.50;;;20.60;37.30;;;;;;4991195;28;20699;-60
2022/03/20 01:52:11;;;;;;;2.17;1.52;;;20.60;37.20;;;;;;4973481;28;20086;-61
2022/03/20 01:54:49;;;;;;;1.90;1.50;;;20.60;37.20;;;;;;4975333;28;20059;-60
2022/03/20 01:57:23;;;;;;;2.40;1.67;;;20.60;37.20;;;;;;4973289;28;20057;-60
2022/03/20 01:59:50;;;;;;;2.17;1.52;;;20.60;37.20;;;;;;4969210;28;20097;-60
2022/03/20 02:02:16;;;;;;;2.58;1.52;;;20.60;37.20;;;;;;4975042;28;20054;-59
2022/03/20 02:04:41;;;;;;;2.88;1.67;;;20.60;37.20;;;;;;4974589;28;20058;-60
2022/03/20 02:07:07;;;;;;;2.47;1.92;;;20.50;37.10;;;;;;4973066;28;20495;-59
2022/03/20 02:09:36;;;;;;;2.40;1.83;;;20.60;37.10;;;;;;4975401;28;20105;-59
2022/03/20 02:12:02;;;;;;;2.38;1.67;;;20.60;37.20;;;;;;4977448;28;20839;-60
2022/03/20 02:14:28;;;;;;;1.85;1.55;;;20.50;37.10;;;;;;4967957;28;20474;-60
2022/03/20 02:16:55;;;;;;;2.03;1.80;;;20.50;37.10;;;;;;4972455;28;20490;-60
2022/03/20 02:19:21;;;;;;;2.10;1.50;;;20.50;37.10;;;;;;4975749;28;20406;-60
2022/03/20 02:21:48;;;;;;;2.83;1.60;;;20.50;37.10;;;;;;4976733;28;20042;-59
2022/03/20 02:24:33;;;;;;;2.83;2.10;;;20.50;37.10;;;;;;4975287;28;20497;-60
2022/03/20 02:27:11;;;;;;;2.42;1.73;;;20.50;37.00;;;;;;4975965;28;20065;-60
2022/03/20 02:29:37;;;;;;;2.60;2.38;;;20.50;37.00;;;;;;4972567;28;20046;-60
2022/03/20 02:32:04;;;;;;;4.25;2.03;;;20.40;37.00;;;;;;4974880;28;20050;-60
2022/03/20 02:34:31;;;;;;;3.40;2.13;;;20.40;36.90;;;;;;4974762;28;20054;-60
2022/03/20 02:36:57;;;;;;;2.95;1.92;;;20.40;36.90;;;;;;4975754;28;20093;-60
2022/03/20 02:39:24;;;;;;;2.72;1.95;;;20.40;37.00;;;;;;4975671;28;20046;-60
2022/03/20 02:41:50;;;;;;;2.83;2.20;;;20.40;36.90;;;;;;4989887;28;20054;-60
2022/03/20 02:44:17;;;;;;;2.42;2.17;;;20.40;36.90;;;;;;4969903;28;20102;-60
2022/03/20 02:46:43;;;;;;;3.10;2.13;;;20.40;36.90;;;;;;4972691;28;20074;-60
2022/03/20 02:49:10;;;;;;;2.47;2.25;;;20.40;36.90;;;;;;4975039;28;20085;-60
2022/03/20 02:51:36;;;;;;;2.65;1.95;;;20.40;36.80;;;;;;4972946;28;20104;-60
2022/03/20 02:54:03;;;;;;;2.40;2.20;;;20.40;36.80;;;;;;4972018;28;20069;-60
2022/03/20 02:56:29;;;;;;;2.58;2.20;;;20.40;36.80;;;;;;4974952;28;20042;-59
2022/03/20 02:58:55;;;;;;;3.33;2.30;;;20.40;36.80;;;;;;4966325;28;20051;-60
2022/03/20 03:01:22;;;;;;;3.47;2.22;;;20.30;36.70;;;;;;4969763;28;20070;-60
2022/03/20 03:03:48;;;;;;;2.83;2.20;;;20.40;36.80;;;;;;4969355;28;20058;-60
2022/03/20 03:06:14;;;;;;;2.38;2.13;;;20.30;36.70;;;;;;4972592;28;20384;-59
2022/03/20 03:11:24;;;;;;;3.72;2.15;;;20.40;36.70;;;;;;4977869;28;20057;-60
2022/03/20 03:13:50;;;;;;;3.80;2.30;;;20.30;36.70;;;;;;4970475;28;20046;-60
2022/03/20 03:16:16;;;;;;;2.40;2.20;;;20.30;36.70;;;;;;4972397;28;20055;-60
2022/03/20 03:18:46;;;;;;;3.15;2.65;;;20.30;36.70;;;;;;4973130;28;20576;-60
2022/03/20 03:21:18;;;;;;;3.50;2.55;;;20.30;36.70;;;;;;4973312;28;20521;-60
2022/03/20 03:23:44;;;;;;;2.65;2.45;;;20.30;36.60;;;;;;4973900;28;20050;-60
2022/03/20 03:26:11;;;;;;;2.53;2.30;;;20.30;36.60;;;;;;4974098;28;20153;-60
2022/03/20 03:28:37;;;;;;;2.88;2.28;;;20.20;36.60;;;;;;4975053;28;20057;-60
2022/03/20 03:31:08;;;;;;;2.53;2.33;;;20.20;36.60;;;;;;4969834;28;20043;-60
2022/03/20 03:33:36;;;;;;;3.42;2.47;;;20.20;36.60;;;;;;4974898;28;20046;-60
2022/03/20 03:36:02;;;;;;;2.78;2.45;;;20.30;36.60;;;;;;4973116;28;20042;-60
2022/03/20 03:38:34;;;;;;;2.50;2.30;;;20.20;36.50;;;;;;4975565;28;20042;-60
2022/03/20 03:41:01;;;;;;;3.13;2.55;;;20.20;36.50;;;;;;4975923;28;20043;-60
2022/03/20 03:43:27;;;;;;;3.05;2.50;;;20.20;36.50;;;;;;4976694;28;20545;-60
2022/03/20 03:45:53;;;;;;;3.00;2.30;;;20.20;36.50;;;;;;4971884;28;20061;-60
2022/03/20 03:48:19;;;;;;;3.25;2.75;;;20.20;36.60;;;;;;4977632;28;20057;-60
2022/03/20 03:50:46;;;;;;;2.97;2.65;;;20.20;36.50;;;;;;4975577;28;20034;-60
2022/03/20 03:53:12;;;;;;;2.88;2.50;;;20.20;36.50;;;;;;4976875;28;20116;-59
2022/03/20 03:55:39;;;;;;;2.50;2.20;;;20.20;36.50;;;;;;4981691;28;20415;-60
2022/03/20 03:58:06;;;;;;;3.33;2.38;;;20.20;36.50;;;;;;4975503;28;20121;-59
2022/03/20 04:00:33;;;;;;;2.70;2.50;;;20.20;36.50;;;;;;4973430;28;20544;-60
2022/03/20 04:03:02;;;;;;;2.90;2.20;;;20.20;36.50;;;;;;4977672;28;20065;-59
2022/03/20 04:05:28;;;;;;;3.28;2.50;;;20.20;36.50;;;;;;4975785;28;20053;-60
2022/03/20 04:07:54;;;;;;;3.47;2.80;;;20.20;36.50;;;;;;4978226;28;20052;-60
2022/03/20 04:10:21;;;;;;;2.90;2.60;;;20.10;36.40;;;;;;4977422;28;20042;-60
2022/03/20 04:12:47;;;;;;;2.83;2.60;;;20.10;36.40;;;;;;4976854;28;20043;-60
2022/03/20 04:15:14;;;;;;;3.80;2.90;;;20.10;36.40;;;;;;4970787;28;20046;-60
2022/03/20 04:17:40;;;;;;;2.88;2.53;;;20.10;36.30;;;;;;4978752;28;20050;-60
2022/03/20 04:20:12;;;;;;;3.10;2.78;;;20.10;36.30;;;;;;4975680;28;20039;-60
2022/03/20 04:22:40;;;;;;;3.85;2.70;;;20.10;36.30;;;;;;4975990;28;20055;-60
2022/03/20 04:25:07;;;;;;;2.97;2.67;;;20.10;36.30;;;;;;4976343;28;20038;-60
2022/03/20 04:27:33;;;;;;;2.95;2.65;;;20.10;36.40;;;;;;4974752;28;20042;-60
2022/03/20 04:29:59;;;;;;;3.65;2.90;;;20.10;36.30;;;;;;4972172;28;20051;-59
2022/03/20 04:32:25;;;;;;;3.05;2.83;;;20.10;36.30;;;;;;4977083;28;20089;-59
2022/03/20 04:34:53;;;;;;;3.08;2.65;;;20.10;36.30;;;;;;4975824;28;20097;-59
2022/03/20 04:37:21;;;;;;;3.97;2.92;;;20.10;36.30;;;;;;4976702;28;20035;-60
2022/03/20 04:39:47;;;;;;;3.13;2.83;;;20.00;36.20;;;;;;4975199;28;20070;-60
2022/03/20 04:42:13;;;;;;;3.40;3.10;;;20.10;36.20;;;;;;4977162;28;20145;-60
2022/03/20 04:44:39;;;;;;;3.33;3.00;;;20.00;36.20;;;;;;4975001;28;20050;-60
2022/03/20 04:58:28;;;;;;;3.63;3.08;;;20.00;36.10;;;;;;4975232;28;20133;-60
2022/03/20 04:58:29;;;;;;;4.05;3.20;;;20.00;36.20;;;;;;4950538;28;20137;-60
2022/03/20 05:00:56;;;;;;;3.58;3.17;;;20.00;36.20;;;;;;4967099;28;20054;-60
2022/03/20 05:03:22;;;;;;;3.72;3.10;;;20.00;36.20;;;;;;4973002;28;20077;-60
2022/03/20 05:05:47;;;;;;;3.33;2.85;;;20.00;36.20;;;;;;4973765;28;20493;-59
2022/03/20 05:08:13;;;;;;;3.25;2.95;;;20.00;36.20;;;;;;4960211;28;20049;-60
2022/03/20 05:13:23;;;;;;;5.40;3.05;;;19.90;36.00;;;;;;4975060;28;20561;-60
2022/03/20 05:15:49;;;;;;;4.82;3.33;;;20.00;36.00;;;;;;4971336;28;20847;-59
2022/03/20 05:18:15;;;;;;;4.43;3.55;;;20.00;36.00;;;;;;4976679;28;20055;-60
2022/03/20 05:20:43;;;;;;;3.47;3.15;;;20.00;36.10;;;;;;4975508;28;20101;-60
2022/03/20 05:23:10;;;;;;;4.43;3.47;;;19.90;36.10;;;;;;4974552;28;20061;-60
2022/03/20 05:25:36;;;;;;;4.18;3.50;;;19.90;36.00;;;;;;4974769;28;20051;-60
2022/03/20 05:28:02;;;;;;;3.85;3.55;;;19.90;35.90;;;;;;4972427;28;20561;-60
2022/03/20 05:30:28;;;;;;;3.60;3.30;;;19.90;35.90;;;;;;4971786;28;20890;-60
2022/03/20 05:32:54;;;;;;;4.15;3.75;;;19.90;35.90;;;;;;4977235;28;20045;-59
2022/03/20 05:35:20;;;;;;;3.75;3.45;;;19.90;35.90;;;;;;4976416;28;20138;-60
2022/03/20 05:37:46;;;;;;;4.25;3.85;;;19.90;35.90;;;;;;4975656;28;20537;-60
2022/03/20 05:40:14;;;;;;;4.15;3.65;;;19.90;35.90;;;;;;4974145;28;20050;-60
2022/03/20 05:42:41;;;;;;;4.38;3.60;;;19.90;35.80;;;;;;4976456;28;20047;-60
2022/03/20 05:45:10;;;;;;;4.63;4.10;;;19.90;35.80;;;;;;4972217;28;20035;-60
2022/03/20 05:47:36;;;;;;;4.15;3.60;;;19.90;35.70;;;;;;4972574;28;20276;-60
2022/03/20 05:50:03;;;;;;;4.30;3.85;;;19.90;35.70;;;;;;4974477;28;20108;-60
2022/03/20 05:52:31;;;;;;;4.10;3.70;;;19.90;35.70;;;;;;4959836;28;20391;-60
2022/03/20 05:55:01;;;;;;;4.75;3.50;;;19.90;35.60;;;;;;4977137;28;20050;-60
2022/03/20 06:00:19;;;;;;;4.85;3.92;;;19.90;35.60;;;;;;4973287;28;20046;-60
2022/03/20 06:02:45;;;;;;;4.93;4.30;;;19.90;35.60;;;;;;4970927;28;20984;-60
2022/03/20 06:05:12;;;;;;;4.95;3.92;;;19.90;35.60;;;;;;4976963;28;20173;-61
2022/03/20 06:07:46;;;;;;;5.15;4.05;;;19.90;35.60;;;;;;4976674;28;20047;-61
2022/03/20 06:10:21;;;;;;;5.90;4.50;;;19.90;35.60;;;;;;4982751;28;20437;-60
2022/03/20 06:12:47;;;;;;;4.65;4.22;;;19.90;35.50;;;;;;4972646;28;20128;-60
2022/03/20 06:15:13;;;;;;;6.15;5.18;;;19.90;35.50;;;;;;4973428;28;20054;-60
2022/03/20 06:17:41;;;;;;;4.95;4.45;;;20.00;35.50;;;;;;4968689;28;20529;-60
2022/03/20 06:20:08;;;;;;;5.47;4.55;;;19.90;35.40;;;;;;4991406;28;20054;-60
2022/03/20 06:22:34;;;;;;;4.47;4.07;;;19.90;35.40;;;;;;4973069;28;20057;-60
2022/03/20 06:25:03;;;;;;;5.68;4.50;;;19.90;35.40;;;;;;4974693;28;20101;-60
2022/03/20 06:27:28;;;;;;;5.38;4.65;;;19.90;35.20;;;;;;4976709;28;20514;-60
2022/03/20 06:29:55;;;;;;;5.30;4.53;;;19.90;35.20;;;;;;4957647;28;20401;-60
2022/03/20 06:32:20;;;;;;;5.30;4.80;;;19.90;35.20;;;;;;4970768;28;20055;-60
2022/03/20 06:34:46;;;;;;;4.80;4.30;;;20.00;35.30;;;;;;4975650;28;20042;-60
2022/03/20 06:37:11;;;;;;;4.88;4.47;;;20.00;35.50;;;;;;4977970;28;20113;-60
2022/03/20 06:39:37;;;;;;;5.22;4.28;;;20.00;35.40;;;;;;4976522;28;20051;-61
2022/03/20 06:42:03;;;;;;;5.03;4.53;;;20.00;35.50;;;;;;4973940;28;20042;-61
2022/03/20 06:44:28;;;;;;;5.15;4.40;;;20.00;35.50;;;;;;4976248;28;20082;-61
2022/03/20 06:46:55;;;;;;;4.60;4.20;;;20.00;35.60;;;;;;4968678;28;20082;-61
2022/03/20 06:49:21;;;;;;;5.00;4.60;;;20.00;35.60;;;;;;4973850;28;21071;-61
2022/03/20 06:51:47;;;;;;;4.80;4.30;;;20.00;35.60;;;;;;4974139;28;20055;-61
2022/03/20 06:54:13;;;;;;;4.97;4.47;;;20.00;35.60;;;;;;4975243;28;20538;-63
2022/03/20 06:56:39;;;;;;;5.38;4.65;;;20.10;35.60;;;;;;4973431;28;20687;-60
2022/03/20 06:59:05;;;;;;;5.45;4.95;;;20.10;35.60;;;;;;4973499;28;20069;-60
2022/03/20 07:01:30;;;;;;;4.70;4.30;;;20.10;35.60;;;;;;4968915;28;20165;-60
2022/03/20 07:03:56;;;;;;;5.65;4.78;;;20.10;35.60;;;;;;4971939;28;20495;-61
2022/03/20 07:06:26;;;;;;;5.15;4.40;;;20.10;35.80;;;;;;4968279;28;20130;-60
2022/03/20 07:08:55;;;;;;;5.93;4.65;;;20.10;35.90;;;;;;4968398;28;20141;-60
2022/03/20 07:11:21;;;;;;;4.85;4.22;;;20.10;36.00;;;;;;4969617;28;20839;-60
2022/03/20 07:13:49;;;;;;;5.47;4.88;;;20.10;36.60;;;;;;4971652;28;20038;-61
2022/03/20 07:16:15;;;;;;;6.90;5.18;;;20.10;35.80;;;;;;4972074;28;20081;-60
2022/03/20 07:18:42;;;;;;;5.53;5.03;;;20.10;35.80;;;;;;4970992;28;20100;-61
2022/03/20 07:21:08;;;;;;;6.65;5.38;;;20.20;35.80;;;;;;4973797;28;20054;-61
2022/03/20 07:23:36;;;;;;;5.53;5.03;;;20.10;35.90;;;;;;4970689;28;20438;-61
2022/03/20 07:31:30;;;;;;;5.55;5.05;;;20.20;35.80;;;;;;4971602;28;20129;-61
2022/03/20 07:33:56;;;;;;;5.60;5.10;;;20.20;36.00;;;;;;4969636;28;20050;-61
2022/03/20 07:36:22;;;;;;;6.38;5.47;;;20.10;35.70;;;;;;4972216;28;20057;-61
2022/03/20 07:38:50;;;;;;;6.00;5.18;;;20.10;35.90;;;;;;4957207;28;20136;-61
2022/03/20 07:41:16;;;;;;;6.35;5.38;;;20.20;36.00;;;;;;4970703;28;20057;-61
2022/03/20 07:43:41;;;;;;;6.63;5.75;;;20.20;35.90;;;;;;4972014;28;20072;-60
2022/03/20 07:46:08;;;;;;;5.95;4.95;;;20.20;36.00;;;;;;4972298;28;20089;-60
2022/03/20 07:48:34;;;;;;;6.40;5.60;;;20.20;36.10;;;;;;4974993;28;20079;-60
2022/03/20 07:51:00;;;;;;;6.00;5.40;;;20.30;36.00;;;;;;4972334;28;20097;-60
2022/03/20 07:53:26;;;;;;;7.93;5.60;;;20.20;35.80;;;;;;4975376;28;20054;-60
2022/03/20 07:55:52;;;;;;;6.60;5.85;;;20.30;35.80;;;;;;4973679;28;20062;-60
2022/03/20 07:58:19;;;;;;;7.15;5.68;;;20.30;35.70;;;;;;4970279;28;20050;-61
2022/03/20 08:00:46;;;;;;;6.10;5.50;;;20.30;35.60;;;;;;4974307;28;20524;-60
2022/03/20 08:03:11;;;;;;;6.22;5.63;;;20.30;35.60;;;;;;4972189;28;20136;-59
2022/03/20 08:05:38;;;;;;;6.32;5.35;;;20.30;35.60;;;;;;4973706;28;20118;-60
2022/03/20 08:08:04;;;;;;;7.15;5.75;;;20.30;35.70;;;;;;4973764;28;20039;-61
2022/03/20 08:10:30;;;;;;;7.30;5.65;;;20.30;35.80;;;;;;4987641;28;20133;-61
2022/03/20 08:12:56;;;;;;;7.75;6.15;;;20.30;35.70;;;;;;4970259;28;20047;-60
2022/03/20 08:15:24;;;;;;;7.93;6.03;;;20.30;35.60;;;;;;4957316;28;20520;-61
2022/03/20 08:17:50;;;;;;;10.32;6.80;;;20.30;35.70;;;;;;4974496;28;20043;-61
2022/03/20 08:20:16;;;;;;;6.93;6.15;;;20.30;35.70;;;;;;4971905;28;20093;-61
2022/03/20 08:22:42;;;;;;;7.03;6.32;;;20.30;35.70;;;;;;4972715;28;20062;-61
2022/03/20 08:25:10;;;;;;;7.50;6.10;;;20.40;35.80;;;;;;4971721;28;20042;-61
2022/03/20 08:27:53;;;;;;;8.77;6.35;;;20.40;35.80;;;;;;4976207;28;20081;-61
2022/03/20 08:30:20;;;;;;;7.15;6.45;;;20.40;35.80;;;;;;4976073;28;20097;-61
2022/03/20 08:32:49;;;;;;;8.05;5.65;;;20.40;35.90;;;;;;4975970;28;20093;-61
2022/03/20 08:35:16;;;;;;;7.13;6.13;;;20.40;36.00;;;;;;4977192;28;20510;-62
2022/03/20 08:37:43;;;;;;;7.07;6.30;;;20.40;36.00;;;;;;4977521;28;20058;-62
2022/03/20 08:40:17;;;;;;;6.90;5.78;;;20.40;36.00;;;;;;4975590;28;20762;-62
2022/03/20 08:42:44;;;;;;;6.80;5.40;;;20.40;36.00;;;;;;4975001;28;20051;-62
2022/03/20 08:45:14;;;;;;;6.70;6.00;;;20.40;36.20;;;;;;4987831;28;20047;-63
2022/03/20 08:47:40;;;;;;;7.57;6.32;;;20.40;36.20;;;;;;4972789;28;20078;-62
2022/03/20 08:50:08;;;;;;;6.18;5.57;;;20.40;36.30;;;;;;4972587;28;20047;-61
2022/03/20 08:52:36;;;;;;;10.43;6.50;;;20.40;36.30;;;;;;4974046;28;20126;-61
2022/03/20 08:55:09;;;;;;;8.00;6.30;;;20.40;36.30;;;;;;4973671;28;20446;-61
2022/03/20 08:57:38;;;;;;;7.72;6.32;;;20.50;36.40;;;;;;4973740;28;20351;-60
2022/03/20 09:00:07;;;;;;;7.82;5.93;;;20.50;36.40;;;;;;4964937;28;20126;-60
2022/03/20 09:02:35;;;;;;;8.63;6.70;;;20.50;36.30;;;;;;4975411;28;20105;-60
2022/03/20 09:05:02;;;;;;;7.60;6.80;;;20.50;36.20;;;;;;4978583;28;20157;-61
2022/03/20 09:07:30;;;;;;;11.07;6.43;;;20.50;36.30;;;;;;4956601;28;20052;-61
2022/03/20 09:09:57;;;;;;;7.43;6.63;;;20.50;36.30;;;;;;4973849;28;20181;-61
2022/03/20 09:12:27;;;;;;;7.72;6.93;;;20.50;36.40;;;;;;4973670;28;20152;-62
2022/03/20 09:14:54;;;;;;;6.90;6.20;;;20.50;36.50;;;;;;4970307;28;20469;-60
2022/03/20 09:20:07;;;;;;;11.50;7.32;;;20.50;36.70;;;;;;4973721;28;20077;-61
2022/03/20 09:22:34;;;;;;;10.18;6.35;;;20.50;36.80;;;;;;4978222;28;20119;-60
2022/03/20 09:25:01;;;;;;;8.05;7.15;;;20.60;36.90;;;;;;4974430;28;20042;-61
2022/03/20 09:27:28;;;;;;;8.48;7.25;;;20.60;36.90;;;;;;4973455;28;20054;-61
2022/03/20 09:29:55;;;;;;;8.82;7.18;;;20.60;36.90;;;;;;4974222;28;20380;-61
2022/03/20 09:32:21;;;;;;;8.10;7.30;;;20.60;36.80;;;;;;4975731;28;20062;-62
2022/03/20 09:34:47;;;;;;;7.68;6.97;;;20.60;36.90;;;;;;4973794;28;20054;-61
2022/03/20 09:37:12;;;;;;;10.00;7.50;;;20.60;36.80;;;;;;4973990;28;20058;-60
2022/03/20 09:39:38;;;;;;;9.55;7.20;;;20.70;36.80;;;;;;4973861;28;20053;-60
2022/03/20 09:42:06;;;;;;;7.93;7.13;;;20.70;36.70;;;;;;4975600;28;20136;-60
2022/03/20 09:44:33;;;;;;;9.40;6.75;;;20.70;36.70;;;;;;4974739;28;20046;-60
2022/03/20 09:47:00;;;;;;;8.07;7.28;;;20.70;36.70;;;;;;4976579;28;20125;-60
2022/03/20 09:49:25;;;;;;;7.60;6.82;;;20.70;36.50;;;;;;4974606;28;20450;-60
2022/03/20 09:51:52;;;;;;;8.15;7.35;;;20.80;36.50;;;;;;4971338;28;20050;-60
2022/03/20 09:54:18;;;;;;;11.27;7.40;;;20.70;36.40;;;;;;4973834;28;20460;-59
2022/03/20 09:56:48;;;;;;;8.73;7.40;;;20.70;36.40;;;;;;4972826;28;20136;-59
2022/03/20 09:59:14;;;;;;;7.65;6.93;;;20.80;36.50;;;;;;4972162;28;20057;-59
2022/03/20 10:01:40;;;;;;;7.85;7.15;;;20.80;36.60;;;;;;4974772;28;20125;-59
2022/03/20 10:04:15;;;;;;;9.70;7.28;;;20.80;36.60;;;;;;4972754;28;20053;-58
2022/03/20 10:06:41;;;;;;;9.75;7.65;;;20.80;36.60;;;;;;4971441;28;20546;-58
2022/03/20 10:09:10;;;;;;;8.43;7.38;;;20.80;36.60;;;;;;4970568;28;20852;-57
2022/03/20 10:11:40;;;;;;;8.23;6.82;;;20.80;36.60;;;;;;4956127;28;20072;-58
2022/03/20 10:14:06;;;;;;;8.23;7.32;;;20.80;36.60;;;;;;4973543;28;20131;-58
2022/03/20 10:16:33;;;;;;;8.80;7.70;;;20.80;36.60;;;;;;4971585;28;20513;-58
2022/03/20 10:18:58;;;;;;;9.07;7.75;;;20.80;36.60;;;;;;4973598;28;20703;-57
2022/03/20 10:21:44;;;;;;;8.45;7.55;;;20.80;36.60;;;;;;4972257;28;20938;-59
2022/03/20 10:24:17;;;;;;;9.25;8.07;;;20.80;36.60;;;;;;4970538;28;20062;-60
2022/03/20 10:26:44;;;;;;;8.23;7.43;;;20.80;36.70;;;;;;4972231;28;20046;-60
2022/03/20 10:29:17;;;;;;;11.85;8.07;;;20.80;36.80;;;;;;4969107;28;20078;-59
2022/03/20 10:31:50;;;;;;;9.45;7.72;;;20.80;36.80;;;;;;4969586;28;20042;-58
2022/03/20 10:34:17;;;;;;;8.27;7.47;;;20.80;36.80;;;;;;4971945;28;20516;-60
2022/03/20 10:36:43;;;;;;;8.57;7.60;;;20.90;36.90;;;;;;4973569;28;20442;-59
2022/03/20 10:39:19;;;;;;;9.60;8.38;;;20.80;36.90;;;;;;4972266;28;20042;-58
2022/03/20 10:41:51;;;;;;;9.25;7.20;;;20.90;36.90;;;;;;4985239;28;20198;-58
2022/03/20 10:44:21;;;;;;;8.52;7.60;;;20.90;36.90;;;;;;4987106;28;20126;-60
2022/03/20 10:46:58;;;;;;;8.35;7.40;;;20.90;37.00;;;;;;4970908;28;21001;-58
2022/03/20 10:49:25;;;;;;;9.43;8.23;;;20.90;37.00;;;;;;4970329;28;20059;-60
2022/03/20 10:52:07;;;;;;;8.45;7.55;;;20.90;37.00;;;;;;4971484;28;20050;-58
2022/03/20 10:55:04;;;;;;;8.63;7.53;;;20.90;36.90;;;;;;4969880;28;20052;-59
2022/03/20 10:57:33;;;;;;;8.75;7.65;;;21.00;36.90;;;;;;4971117;28;20520;-59
2022/03/20 11:00:03;;;;;;;8.68;7.22;;;21.00;36.90;;;;;;4969390;28;20046;-59
2022/03/20 11:02:29;;;;;;;9.32;8.43;;;20.90;36.80;;;;;;4972421;28;20060;-59
2022/03/20 11:04:54;;;;;;;11.13;8.68;;;21.00;36.70;;;;;;4969641;28;20046;-58
2022/03/20 11:07:21;;;;;;;11.07;9.63;;;21.00;36.70;;;;;;4977565;28;20453;-58
2022/03/20 11:09:52;;;;;;;12.60;9.70;;;21.00;36.90;;;;;;4971888;28;20094;-58
2022/03/20 11:12:31;;;;;;;15.85;11.88;;;21.00;36.90;;;;;;4972913;28;20406;-58
2022/03/20 11:14:59;;;;;;;18.50;12.35;;;21.00;37.20;;;;;;4979687;28;20047;-58
2022/03/20 11:17:43;;;;;;;16.75;12.48;;;21.00;37.20;;;;;;4973385;28;20046;-59
2022/03/20 11:20:11;;;;;;;19.40;12.75;;;21.00;37.30;;;;;;4973312;28;20054;-59
2022/03/20 11:22:50;;;;;;;19.67;13.02;;;21.10;38.20;;;;;;4970747;28;20050;-58
2022/03/20 11:25:20;;;;;;;18.92;12.52;;;21.10;37.50;;;;;;4973029;28;20601;-58
2022/03/20 11:27:51;;;;;;;20.67;12.85;;;21.10;37.50;;;;;;4973285;28;20046;-59
2022/03/20 11:30:19;;;;;;;18.73;12.55;;;21.10;37.50;;;;;;4987129;28;20050;-59
2022/03/20 11:32:46;;;;;;;22.17;12.07;;;21.00;37.50;;;;;;4976355;28;20170;-59
2022/03/20 11:35:13;;;;;;;16.77;12.10;;;21.00;37.50;;;;;;4970151;28;21244;-60
2022/03/20 11:37:47;;;;;;;18.83;12.13;;;21.10;37.60;;;;;;4973318;28;20079;-59
2022/03/20 11:40:21;;;;;;;19.15;11.88;;;21.10;37.60;;;;;;4974769;28;20090;-59
2022/03/20 11:42:49;;;;;;;20.23;11.65;;;21.10;37.50;;;;;;4972294;28;20050;-59
2022/03/20 11:45:24;;;;;;;17.23;11.38;;;21.00;37.40;;;;;;4974190;28;20055;-58
2022/03/20 11:48:13;;;;;;;17.48;11.30;;;21.10;37.30;;;;;;4972933;28;20048;-58
2022/03/20 11:50:49;;;;;;;15.90;11.20;;;21.00;37.20;;;;;;4957232;28;20141;-58
2022/03/20 11:53:29;;;;;;;18.05;11.43;;;21.00;37.20;;;;;;4972507;28;20058;-59
2022/03/20 11:55:54;;;;;;;17.88;11.98;;;21.00;37.10;;;;;;4971509;28;20608;-58
2022/03/20 11:58:24;;;;;;;16.85;10.77;;;21.00;37.10;;;;;;4972201;28;20051;-57
2022/03/20 12:01:06;;;;;;;13.85;10.32;;;21.00;37.20;;;;;;4976296;28;20057;-59
2022/03/20 12:03:46;;;;;;;14.30;10.13;;;21.00;37.10;;;;;;4975020;28;20437;-59
2022/03/20 12:06:24;;;;;;;14.02;10.13;;;21.00;37.10;;;;;;4975282;28;20065;-58
2022/03/20 12:09:13;;;;;;;12.50;10.07;;;21.00;37.10;;;;;;4978043;28;20058;-58
2022/03/20 12:12:27;;;;;;;14.00;10.02;;;21.00;37.10;;;;;;4976761;28;20126;-59
2022/03/20 12:14:56;;;;;;;14.63;9.00;;;21.00;37.20;;;;;;4961827;28;20051;-59
2022/03/20 12:17:22;;;;;;;14.82;8.80;;;21.00;37.40;;;;;;4973717;28;20050;-59
2022/03/20 12:19:53;;;;;;;12.95;10.02;;;21.10;37.30;;;;;;4974665;28;20085;-60
2022/03/20 12:22:19;;;;;;;14.65;8.95;;;21.10;37.10;;;;;;4973866;28;20034;-59
2022/03/20 12:24:54;;;;;;;13.32;8.73;;;21.20;37.10;;;;;;4972938;28;20042;-59
2022/03/20 12:27:19;;;;;;;11.40;8.98;;;21.10;37.00;;;;;;4976372;28;20042;-59
2022/03/20 12:29:49;;;;;;;11.52;9.30;;;21.10;37.00;;;;;;4976101;28;20053;-58
2022/03/20 12:32:16;;;;;;;11.90;9.13;;;21.10;37.00;;;;;;4978331;28;20093;-58
2022/03/20 12:34:44;;;;;;;11.57;9.23;;;21.10;37.00;;;;;;4979022;28;20065;-58
2022/03/20 12:37:34;;;;;;;12.77;8.95;;;21.10;37.00;;;;;;4978740;28;20078;-58
2022/03/20 12:40:27;;;;;;;13.57;9.63;;;21.10;37.00;;;;;;4978443;28;20669;-59
2022/03/20 12:43:13;;;;;;;14.23;9.50;;;21.10;37.10;;;;;;4973809;28;20479;-59
2022/03/20 12:45:47;;;;;;;12.65;9.63;;;21.10;37.00;;;;;;4975482;28;20053;-58
2022/03/20 12:48:15;;;;;;;11.95;9.18;;;21.10;37.00;;;;;;4960435;28;20046;-60
2022/03/20 12:50:46;;;;;;;16.00;10.32;;;21.10;37.00;;;;;;4974389;28;20402;-57
2022/03/20 12:53:15;;;;;;;11.57;8.80;;;21.10;36.90;;;;;;4974545;28;20054;-57
2022/03/20 12:55:43;;;;;;;12.25;9.23;;;21.00;36.90;;;;;;4975156;28;20065;-57
2022/03/20 12:58:15;;;;;;;11.65;9.43;;;21.10;36.90;;;;;;4975009;28;20616;-57
2022/03/20 13:00:43;;;;;;;10.68;9.35;;;21.00;36.70;;;;;;4976086;28;20046;-57
2022/03/20 13:03:10;;;;;;;13.77;9.45;;;21.00;36.70;;;;;;4976428;28;20062;-58
2022/03/20 13:05:45;;;;;;;12.38;9.15;;;21.00;36.60;;;;;;4975261;28;20162;-58
2022/03/20 13:08:17;;;;;;;13.23;10.15;;;21.00;36.60;;;;;;4974939;28;20057;-60
2022/03/20 13:10:43;;;;;;;9.93;8.55;;;21.00;36.50;;;;;;4978948;28;20081;-58
2022/03/20 13:13:08;;;;;;;10.70;9.48;;;21.00;37.00;;;;;;4977091;28;20171;-57